createdAt,value
2023-01-26T00:01:46.825Z,4.15
2023-01-26T00:04:14.577Z,3.45
2023-01-26T00:06:42.480Z,3.25
2023-01-26T00:09:17.070Z,3.53
2023-01-26T00:11:45.114Z,4.05
2023-01-26T00:14:12.685Z,4.20
2023-01-26T00:16:40.980Z,3.78
2023-01-26T00:19:08.605Z,3.65
2023-01-26T00:21:36.498Z,3.55
2023-01-26T00:24:04.811Z,3.67
2023-01-26T00:26:32.873Z,3.43
2023-01-26T00:29:01.565Z,3.92
2023-01-26T00:31:29.631Z,3.50
2023-01-26T00:33:57.684Z,2.70
2023-01-26T00:36:26.015Z,3.22
2023-01-26T00:38:53.584Z,3.47
2023-01-26T00:41:39.977Z,3.00
2023-01-26T00:44:07.741Z,3.85
2023-01-26T00:46:36.069Z,3.58
2023-01-26T00:49:03.630Z,2.65
2023-01-26T00:51:31.405Z,3.70
2023-01-26T00:53:59.121Z,2.92
2023-01-26T00:56:28.228Z,3.55
2023-01-26T00:58:56.036Z,2.75
2023-01-26T01:01:23.957Z,3.92
2023-01-26T01:03:52.229Z,3.50
2023-01-26T01:06:20.256Z,3.57
2023-01-26T01:08:47.866Z,3.33
2023-01-26T01:11:15.841Z,3.40
2023-01-26T01:13:43.543Z,3.15
2023-01-26T01:16:15.357Z,4.00
2023-01-26T01:18:43.429Z,3.47
2023-01-26T01:21:15.118Z,4.78
2023-01-26T01:23:43.910Z,4.03
2023-01-26T01:26:12.180Z,4.65
2023-01-26T01:28:40.678Z,4.57
2023-01-26T01:31:13.237Z,3.83
2023-01-26T01:33:42.181Z,4.40
2023-01-26T01:36:15.100Z,3.75
2023-01-26T01:38:44.296Z,4.70
2023-01-26T01:43:41.169Z,4.32
2023-01-26T01:46:35.190Z,3.55
2023-01-26T01:49:24.200Z,4.03
2023-01-26T01:54:44.951Z,4.22
2023-01-26T01:57:28.608Z,3.90
2023-01-26T02:00:09.393Z,4.25
2023-01-26T02:03:09.288Z,4.32
2023-01-26T02:05:51.224Z,4.03
2023-01-26T02:08:22.349Z,4.18
2023-01-26T02:10:55.770Z,3.78
2023-01-26T02:13:25.983Z,3.58
2023-01-26T02:15:54.695Z,4.47
2023-01-26T02:18:22.758Z,3.22
2023-01-26T02:21:00.689Z,4.10
2023-01-26T02:24:12.885Z,3.83
2023-01-26T02:26:40.719Z,4.13
2023-01-26T02:29:11.595Z,3.90
2023-01-26T02:31:43.754Z,4.80
2023-01-26T02:34:11.752Z,4.40
2023-01-26T02:36:39.599Z,4.15
2023-01-26T02:40:01.951Z,3.70
2023-01-26T02:42:38.706Z,3.55
2023-01-26T02:45:17.342Z,4.82
2023-01-26T02:47:46.787Z,3.65
2023-01-26T02:50:15.472Z,4.40
2023-01-26T02:52:44.835Z,4.35
2023-01-26T02:55:25.261Z,3.60
2023-01-26T02:57:59.479Z,4.25
2023-01-26T03:00:37.399Z,4.30
2023-01-26T03:03:26.751Z,3.97
2023-01-26T03:05:54.589Z,3.67
2023-01-26T03:08:22.141Z,3.83
2023-01-26T03:10:50.013Z,4.97
2023-01-26T03:13:18.660Z,4.60
2023-01-26T03:15:52.750Z,5.53
2023-01-26T03:18:42.029Z,5.20
2023-01-26T03:21:34.045Z,4.63
2023-01-26T03:24:20.891Z,5.28
2023-01-26T03:27:08.386Z,5.50
2023-01-26T03:29:36.500Z,4.35
2023-01-26T03:32:04.825Z,4.43
2023-01-26T03:34:33.522Z,4.50
2023-01-26T03:37:01.479Z,5.55
2023-01-26T03:39:59.553Z,4.15
2023-01-26T03:42:46.696Z,4.88
2023-01-26T03:45:33.431Z,5.35
2023-01-26T03:48:29.990Z,4.95
2023-01-26T03:51:17.007Z,4.53
2023-01-26T03:54:03.907Z,5.50
2023-01-26T03:56:34.630Z,3.90
2023-01-26T03:59:12.330Z,4.82
2023-01-26T04:02:04.509Z,3.75
2023-01-26T04:04:52.068Z,4.43
2023-01-26T04:07:41.987Z,4.80
2023-01-26T04:10:10.974Z,3.78
2023-01-26T04:12:38.817Z,4.60
2023-01-26T04:15:37.007Z,3.47
2023-01-26T04:18:27.406Z,3.97
2023-01-26T04:21:15.175Z,3.25
2023-01-26T04:23:44.858Z,3.50
2023-01-26T04:26:12.819Z,3.58
2023-01-26T04:28:41.238Z,3.30
2023-01-26T04:31:09.742Z,3.67
2023-01-26T04:33:38.583Z,3.05
2023-01-26T04:36:08.622Z,3.38
2023-01-26T04:38:39.839Z,3.88
2023-01-26T04:41:08.027Z,2.80
2023-01-26T04:43:42.577Z,4.03
2023-01-26T04:46:11.290Z,3.30
2023-01-26T04:48:40.946Z,4.03
2023-01-26T04:51:22.218Z,3.42
2023-01-26T04:53:51.253Z,3.05
2023-01-26T04:56:29.513Z,3.45
2023-01-26T04:59:06.375Z,3.60
2023-01-26T05:01:36.684Z,4.07
2023-01-26T05:04:07.932Z,3.40
2023-01-26T05:06:39.037Z,3.47
2023-01-26T05:09:06.555Z,3.63
2023-01-26T05:11:36.736Z,3.50
2023-01-26T05:14:19.271Z,3.25
2023-01-26T05:17:11.262Z,3.38
2023-01-26T05:20:05.373Z,3.58
2023-01-26T05:22:41.565Z,2.75
2023-01-26T05:25:29.281Z,2.03
2023-01-26T05:28:06.597Z,2.45
2023-01-26T05:30:34.365Z,2.38
2023-01-26T05:33:08.149Z,3.20
2023-01-26T05:35:36.237Z,2.97
2023-01-26T05:38:05.870Z,3.03
2023-01-26T05:40:34.738Z,3.75
2023-01-26T05:43:02.708Z,3.17
2023-01-26T05:45:48.768Z,3.85
2023-01-26T05:50:47.433Z,3.35
2023-01-26T05:53:18.193Z,3.72
2023-01-26T05:55:46.280Z,4.03
2023-01-26T05:58:14.736Z,3.33
2023-01-26T06:00:42.351Z,3.85
2023-01-26T06:03:17.111Z,4.03
2023-01-26T06:05:52.031Z,4.75
2023-01-26T06:08:24.548Z,3.28
2023-01-26T06:11:24.865Z,3.80
2023-01-26T06:14:11.439Z,4.40
2023-01-26T06:16:39.407Z,4.95
2023-01-26T06:19:10.954Z,4.07
2023-01-26T06:21:40.247Z,4.43
2023-01-26T06:24:08.451Z,4.40
2023-01-26T06:26:36.220Z,4.90
2023-01-26T06:29:04.162Z,5.47
2023-01-26T06:31:37.363Z,3.95
2023-01-26T06:34:06.706Z,4.90
2023-01-26T06:36:39.183Z,4.45
2023-01-26T06:39:11.674Z,6.20
2023-01-26T06:41:42.379Z,5.03
2023-01-26T06:44:10.875Z,5.05
2023-01-26T06:46:39.565Z,6.50
2023-01-26T06:49:07.633Z,5.75
2023-01-26T06:51:48.109Z,6.13
2023-01-26T06:54:17.200Z,6.63
2023-01-26T06:57:01.303Z,7.30
2023-01-26T06:59:50.304Z,6.05
2023-01-26T07:02:23.662Z,6.32
2023-01-26T07:04:52.613Z,6.13
2023-01-26T07:07:20.205Z,7.70
2023-01-26T07:09:48.293Z,7.63
2023-01-26T07:12:15.909Z,8.48
2023-01-26T07:14:43.872Z,7.45
2023-01-26T07:17:54.192Z,7.53
2023-01-26T07:21:25.066Z,8.45
2023-01-26T07:23:53.438Z,7.90
2023-01-26T07:26:21.521Z,6.07
2023-01-26T07:28:49.260Z,7.05
2023-01-26T07:31:17.528Z,6.60
2023-01-26T07:33:45.227Z,6.55
2023-01-26T07:36:13.067Z,6.90
2023-01-26T07:38:41.671Z,6.82
2023-01-26T07:41:12.999Z,6.47
2023-01-26T07:43:42.271Z,6.03
2023-01-26T07:46:32.279Z,8.65
2023-01-26T07:49:04.880Z,6.85
2023-01-26T07:51:44.764Z,6.93
2023-01-26T07:54:39.555Z,7.03
2023-01-26T07:57:09.226Z,7.28
2023-01-26T07:59:36.941Z,6.35
2023-01-26T08:02:04.838Z,7.18
2023-01-26T08:04:32.465Z,7.25
2023-01-26T08:07:00.558Z,6.72
2023-01-26T08:09:28.208Z,6.93
2023-01-26T08:11:59.503Z,5.90
2023-01-26T08:14:38.198Z,7.95
2023-01-26T08:17:13.186Z,7.60
2023-01-26T08:19:40.684Z,7.55
2023-01-26T08:22:08.618Z,8.23
2023-01-26T08:24:36.175Z,7.05
2023-01-26T08:27:04.557Z,7.32
2023-01-26T08:29:32.175Z,6.80
2023-01-26T08:32:00.188Z,8.32
2023-01-26T08:34:27.868Z,10.38
2023-01-26T08:36:55.907Z,10.43
2023-01-26T08:39:23.490Z,10.05
2023-01-26T08:41:51.468Z,9.73
2023-01-26T08:44:19.183Z,8.73
2023-01-26T08:46:47.259Z,9.30
2023-01-26T08:49:15.045Z,9.45
2023-01-26T08:51:43.252Z,8.45
2023-01-26T08:54:10.773Z,8.43
2023-01-26T08:56:38.919Z,9.18
2023-01-26T08:59:06.551Z,7.95
2023-01-26T09:01:34.572Z,8.50
2023-01-26T09:04:03.104Z,8.30
2023-01-26T09:06:33.163Z,8.75
2023-01-26T09:09:00.967Z,8.25
2023-01-26T09:11:29.159Z,9.00
2023-01-26T09:13:56.972Z,7.30
2023-01-26T09:16:25.591Z,8.38
2023-01-26T09:18:54.276Z,8.48
2023-01-26T09:21:24.281Z,7.90
2023-01-26T09:23:52.822Z,8.15
2023-01-26T09:26:20.926Z,6.43
2023-01-26T09:28:53.114Z,6.30
2023-01-26T09:31:21.674Z,7.03
2023-01-26T09:33:50.860Z,6.88
2023-01-26T09:36:19.526Z,5.65
2023-01-26T09:38:47.277Z,4.65
2023-01-26T09:41:42.909Z,6.10
2023-01-26T09:44:24.945Z,6.03
2023-01-26T09:47:01.425Z,5.85
2023-01-26T09:49:51.596Z,6.53
2023-01-26T09:52:35.471Z,8.02
2023-01-26T09:55:15.964Z,7.97
2023-01-26T09:57:50.803Z,9.02
2023-01-26T10:00:31.301Z,6.68
2023-01-26T10:03:29.410Z,5.55
2023-01-26T10:06:13.565Z,6.28
2023-01-26T10:09:08.560Z,5.78
2023-01-26T10:11:51.095Z,6.57
2023-01-26T10:14:44.516Z,5.38
2023-01-26T10:17:22.158Z,6.35
2023-01-26T10:19:57.269Z,7.07
2023-01-26T10:22:44.883Z,8.02
2023-01-26T10:25:21.490Z,6.18
2023-01-26T10:27:49.032Z,7.00
2023-01-26T10:30:19.813Z,6.57
2023-01-26T10:32:52.813Z,5.88
2023-01-26T10:35:24.666Z,4.63
2023-01-26T10:37:53.313Z,4.82
2023-01-26T10:40:21.779Z,4.75
2023-01-26T10:43:01.876Z,4.88
2023-01-26T10:45:33.526Z,4.70
2023-01-26T10:48:19.734Z,5.00
2023-01-26T10:50:48.705Z,4.40
2023-01-26T10:53:24.771Z,3.22
2023-01-26T10:56:16.068Z,4.10
2023-01-26T10:58:47.406Z,4.35
2023-01-26T11:01:18.748Z,4.63
2023-01-26T11:04:10.323Z,5.45
2023-01-26T11:06:38.922Z,6.20
2023-01-26T11:09:31.842Z,6.82
2023-01-26T11:12:08.446Z,3.90
2023-01-26T11:14:36.163Z,5.18
2023-01-26T11:17:37.329Z,4.43
2023-01-26T11:20:31.152Z,4.28
2023-01-26T11:23:07.850Z,3.75
2023-01-26T11:26:17.048Z,3.15
2023-01-26T11:29:15.504Z,4.57
2023-01-26T11:32:04.089Z,4.30
2023-01-26T11:34:54.272Z,4.47
2023-01-26T11:37:48.669Z,5.95
2023-01-26T11:40:35.152Z,7.35
2023-01-26T11:43:32.924Z,11.90
2023-01-26T11:46:25.295Z,20.13
2023-01-26T11:49:34.746Z,38.17
2023-01-26T11:52:44.227Z,26.25
2023-01-26T11:55:42.669Z,26.13
2023-01-26T11:58:48.307Z,23.25
2023-01-26T12:01:41.556Z,12.65
2023-01-26T12:04:20.146Z,16.58
2023-01-26T12:07:03.687Z,16.52
2023-01-26T12:09:42.792Z,22.00
2023-01-26T12:12:43.182Z,31.42
2023-01-26T12:15:32.300Z,41.22
2023-01-26T12:18:17.385Z,20.90
2023-01-26T12:20:58.920Z,15.70
2023-01-26T12:23:51.376Z,17.42
2023-01-26T12:26:23.272Z,10.18
2023-01-26T12:29:27.909Z,7.47
2023-01-26T12:32:11.200Z,9.15
2023-01-26T12:34:38.850Z,10.38
2023-01-26T12:37:24.579Z,8.68
2023-01-26T12:40:50.434Z,10.23
2023-01-26T12:43:44.591Z,13.05
2023-01-26T12:46:14.158Z,6.68
2023-01-26T12:49:17.376Z,7.47
2023-01-26T12:51:53.867Z,6.47
2023-01-26T12:54:45.611Z,6.80
2023-01-26T12:57:21.221Z,6.93
2023-01-26T12:59:50.169Z,6.43
2023-01-26T13:02:27.358Z,5.33
2023-01-26T13:05:01.670Z,5.63
2023-01-26T13:07:37.315Z,5.63
2023-01-26T13:10:28.003Z,6.00
2023-01-26T13:13:20.971Z,5.93
2023-01-26T13:16:15.401Z,7.70
2023-01-26T13:18:52.037Z,12.80
2023-01-26T13:21:38.402Z,13.23
2023-01-26T13:24:17.947Z,13.15
2023-01-26T13:26:59.684Z,16.02
2023-01-26T13:29:32.952Z,20.20
2023-01-26T13:32:20.793Z,17.75
2023-01-26T13:34:54.584Z,17.08
2023-01-26T13:37:36.722Z,16.15
2023-01-26T13:40:20.468Z,13.05
2023-01-26T13:43:26.754Z,11.70
2023-01-26T13:46:26.936Z,10.68
2023-01-26T13:48:57.066Z,12.43
2023-01-26T13:51:29.078Z,11.90
2023-01-26T13:54:04.536Z,8.27
2023-01-26T13:57:05.160Z,9.50
2023-01-26T13:59:34.158Z,9.23
2023-01-26T14:02:01.732Z,9.80
2023-01-26T14:04:32.328Z,11.48
2023-01-26T14:07:19.020Z,11.85
2023-01-26T14:09:55.918Z,12.30
2023-01-26T14:12:47.163Z,12.38
2023-01-26T14:15:30.870Z,13.07
2023-01-26T14:18:05.210Z,13.45
2023-01-26T14:20:40.217Z,12.30
2023-01-26T14:23:19.097Z,12.30
2023-01-26T14:26:01.097Z,13.30
2023-01-26T14:28:34.792Z,14.13
2023-01-26T14:31:13.066Z,11.95
2023-01-26T14:33:40.882Z,11.50
2023-01-26T14:36:17.560Z,10.50
2023-01-26T14:38:48.884Z,9.02
2023-01-26T14:41:19.666Z,9.52
2023-01-26T14:43:51.493Z,8.45
2023-01-26T14:46:42.226Z,9.13
2023-01-26T14:49:42.862Z,9.70
2023-01-26T14:52:30.561Z,11.85
2023-01-26T14:55:04.575Z,10.73
2023-01-26T14:57:32.890Z,10.32
2023-01-26T15:00:02.610Z,11.00
2023-01-26T15:02:42.790Z,12.00
2023-01-26T15:05:23.576Z,12.45
2023-01-26T15:08:03.687Z,13.93
2023-01-26T15:10:43.263Z,12.43
2023-01-26T15:13:11.173Z,11.88
2023-01-26T15:15:43.146Z,11.82
2023-01-26T15:18:13.985Z,9.63
2023-01-26T15:20:51.183Z,7.82
2023-01-26T15:23:29.222Z,8.38
2023-01-26T15:26:23.939Z,7.63
2023-01-26T15:28:54.474Z,7.18
2023-01-26T15:31:36.338Z,9.55
2023-01-26T15:34:06.593Z,6.70
2023-01-26T15:36:54.575Z,6.65
2023-01-26T15:39:22.481Z,6.82
2023-01-26T15:42:15.741Z,6.50
2023-01-26T15:44:43.819Z,6.43
2023-01-26T15:47:13.916Z,6.32
2023-01-26T15:49:42.936Z,6.57
2023-01-26T15:54:53.976Z,6.50
2023-01-26T15:57:21.599Z,5.88
2023-01-26T15:59:49.667Z,7.38
2023-01-26T16:02:21.517Z,6.53
2023-01-26T16:04:49.689Z,7.05
2023-01-26T16:07:19.509Z,8.50
2023-01-26T16:09:49.265Z,8.43
2023-01-26T16:15:02.067Z,8.32
2023-01-26T16:17:30.029Z,8.57
2023-01-26T16:19:57.971Z,7.25
2023-01-26T16:22:25.605Z,8.65
2023-01-26T16:24:53.770Z,9.45
2023-01-26T16:27:21.765Z,9.80
2023-01-26T16:29:49.725Z,12.45
2023-01-26T16:32:29.055Z,11.43
2023-01-26T16:34:57.200Z,11.63
2023-01-26T16:37:24.880Z,10.77
2023-01-26T16:39:53.316Z,11.60
2023-01-26T16:42:21.779Z,12.88
2023-01-26T16:44:50.042Z,12.18
2023-01-26T16:47:17.585Z,11.32
2023-01-26T16:49:45.563Z,11.35
2023-01-26T16:52:13.030Z,11.98
2023-01-26T16:54:40.796Z,10.90
2023-01-26T16:57:09.096Z,12.68
2023-01-26T16:59:36.970Z,13.23
2023-01-26T17:02:04.734Z,13.70
2023-01-26T17:04:32.629Z,15.18
2023-01-26T17:07:00.198Z,13.55
2023-01-26T17:09:28.691Z,12.85
2023-01-26T17:11:56.317Z,13.23
2023-01-26T17:14:24.572Z,13.45
2023-01-26T17:16:52.238Z,13.13
2023-01-26T17:19:21.185Z,14.35
2023-01-26T17:21:52.296Z,13.88
2023-01-26T17:24:20.602Z,14.95
2023-01-26T17:26:48.300Z,13.55
2023-01-26T17:29:16.240Z,12.05
2023-01-26T17:31:43.830Z,11.90
2023-01-26T17:34:12.523Z,11.23
2023-01-26T17:36:40.194Z,10.00
2023-01-26T17:39:10.178Z,10.63
2023-01-26T17:41:37.653Z,9.98
2023-01-26T17:44:05.416Z,9.40
2023-01-26T17:46:32.879Z,11.73
2023-01-26T17:49:00.647Z,11.10
2023-01-26T17:51:28.201Z,12.40
2023-01-26T17:53:56.321Z,12.73
2023-01-26T17:56:24.971Z,12.57
2023-01-26T17:58:57.013Z,12.63
2023-01-26T18:01:26.211Z,13.35
2023-01-26T18:06:21.870Z,14.07
2023-01-26T18:08:49.705Z,16.45
2023-01-26T18:11:17.896Z,16.05
2023-01-26T18:13:45.687Z,15.85
2023-01-26T18:16:20.122Z,17.35
2023-01-26T18:18:48.741Z,16.98
2023-01-26T18:21:27.126Z,17.25
2023-01-26T18:23:59.977Z,17.75
2023-01-26T18:26:34.378Z,18.30
2023-01-26T18:29:03.337Z,13.85
2023-01-26T18:31:37.366Z,11.87
2023-01-26T18:34:05.458Z,11.20
2023-01-26T18:36:33.036Z,12.77
2023-01-26T18:39:08.775Z,12.27
2023-01-26T18:41:36.346Z,12.38
2023-01-26T18:44:04.437Z,11.98
2023-01-26T18:46:32.114Z,12.35
2023-01-26T18:49:03.600Z,12.60
2023-01-26T18:51:34.916Z,10.88
2023-01-26T18:54:04.319Z,13.85
2023-01-26T18:56:32.584Z,14.68
2023-01-26T18:59:00.425Z,13.30
2023-01-26T19:01:28.063Z,13.57
2023-01-26T19:03:57.893Z,14.73
2023-01-26T19:06:26.762Z,14.30
2023-01-26T19:11:36.134Z,14.30
2023-01-26T19:14:06.006Z,12.95
2023-01-26T19:16:35.199Z,12.30
2023-01-26T19:19:03.088Z,11.63
2023-01-26T19:21:33.657Z,11.80
2023-01-26T19:24:07.928Z,12.77
2023-01-26T19:26:35.924Z,13.52
2023-01-26T19:29:04.489Z,12.40
2023-01-26T19:31:35.147Z,13.02
2023-01-26T19:34:06.639Z,12.02
2023-01-26T19:36:36.711Z,12.52
2023-01-26T19:39:05.801Z,12.20
2023-01-26T19:41:35.276Z,12.98
2023-01-26T19:44:02.796Z,13.60
2023-01-26T19:46:30.807Z,11.93
2023-01-26T19:48:58.276Z,13.77
2023-01-26T19:51:27.416Z,13.32
2023-01-26T19:53:58.572Z,13.77
2023-01-26T19:56:35.134Z,14.15
2023-01-26T19:59:07.861Z,14.75
2023-01-26T20:01:37.192Z,14.60
2023-01-26T20:04:13.932Z,15.48
2023-01-26T20:06:42.749Z,15.43
2023-01-26T20:09:10.824Z,13.75
2023-01-26T20:11:38.776Z,13.43
2023-01-26T20:14:10.000Z,15.32
2023-01-26T20:16:38.354Z,15.40
2023-01-26T20:19:06.399Z,16.27
2023-01-26T20:21:35.701Z,14.90
2023-01-26T20:24:06.126Z,15.15
2023-01-26T20:26:36.064Z,15.85
2023-01-26T20:29:05.149Z,17.38
2023-01-26T20:31:33.839Z,16.63
2023-01-26T20:34:02.179Z,16.23
2023-01-26T20:36:31.514Z,15.57
2023-01-26T20:38:59.333Z,16.65
2023-01-26T20:41:30.749Z,15.82
2023-01-26T20:44:03.603Z,15.07
2023-01-26T20:46:40.853Z,14.82
2023-01-26T20:49:16.105Z,15.48
2023-01-26T20:51:46.459Z,12.98
2023-01-26T20:56:45.842Z,11.98
2023-01-26T20:59:13.676Z,13.27
2023-01-26T21:01:41.528Z,14.18
2023-01-26T21:04:09.117Z,14.07
2023-01-26T21:06:37.645Z,13.70
2023-01-26T21:09:05.585Z,13.93
2023-01-26T21:11:34.270Z,13.18
2023-01-26T21:14:02.641Z,13.55
2023-01-26T21:16:33.009Z,13.98
2023-01-26T21:19:00.638Z,13.40
2023-01-26T21:21:28.851Z,11.73
2023-01-26T21:23:56.638Z,9.13
2023-01-26T21:26:44.924Z,10.45
2023-01-26T21:29:17.126Z,9.85
2023-01-26T21:32:03.243Z,10.60
2023-01-26T21:34:34.798Z,9.25
2023-01-26T21:37:05.267Z,10.18
2023-01-26T21:40:14.606Z,9.05
2023-01-26T21:43:16.546Z,10.48
2023-01-26T21:46:28.135Z,10.52
2023-01-26T21:49:47.001Z,10.45
2023-01-26T21:52:58.581Z,9.88
2023-01-26T21:55:53.327Z,9.88
2023-01-26T21:59:05.212Z,10.07
2023-01-26T22:01:40.656Z,10.20
2023-01-26T22:04:58.069Z,10.68
2023-01-26T22:08:21.810Z,10.32
2023-01-26T22:15:09.345Z,10.15
2023-01-26T22:18:16.885Z,10.63
2023-01-26T22:22:03.294Z,11.55
2023-01-26T22:25:50.817Z,12.10
2023-01-26T22:28:56.541Z,10.10
2023-01-26T22:32:08.884Z,10.65
2023-01-26T22:34:45.444Z,10.45
2023-01-26T22:37:14.825Z,10.30
2023-01-26T22:39:54.492Z,10.43
2023-01-26T22:42:37.798Z,12.38
2023-01-26T22:45:22.225Z,11.38
2023-01-26T22:48:00.758Z,11.43
2023-01-26T22:50:44.222Z,11.88
2023-01-26T22:53:26.573Z,11.38
2023-01-26T22:56:25.452Z,11.93
2023-01-26T22:59:09.743Z,12.05
2023-01-26T23:01:51.355Z,12.55
2023-01-26T23:04:28.238Z,14.07
2023-01-26T23:07:05.689Z,14.05
2023-01-26T23:09:43.441Z,13.20
2023-01-26T23:12:12.028Z,13.43
2023-01-26T23:14:39.909Z,13.02
2023-01-26T23:17:08.322Z,13.95
2023-01-26T23:19:36.454Z,13.70
2023-01-26T23:22:04.681Z,13.60
2023-01-26T23:24:32.636Z,14.68
2023-01-26T23:27:00.307Z,12.85
2023-01-26T23:29:28.269Z,12.95
2023-01-26T23:36:19.128Z,14.23
2023-01-26T23:38:54.491Z,11.38
2023-01-26T23:41:23.392Z,13.05
2023-01-26T23:43:52.199Z,13.65
2023-01-26T23:47:00.577Z,13.75
2023-01-26T23:49:38.748Z,13.05
2023-01-26T23:53:28.478Z,14.90
2023-01-26T23:56:18.208Z,12.77
2023-01-26T23:58:46.904Z,13.02
